Time;durP1;ratioP1;P1;durP2;ratioP2;P2;SDS_P1;SDS_P2;PMS_P1;PMS_P2;Temp;Humidity;BMP_temperature;BMP_pressure;BME280_temperature;BME280_humidity;BME280_pressure;Samples;Min_cycle;Max_cycle;Signal;HPM_P1;HPM_P2
2023/09/12 00:01:18;;;;;;;8.02;5.45;;;;;;;;;;4982272;28;20216;-32
2023/09/12 00:03:45;;;;;;;8.77;5.82;;;;;;;;;;4980948;28;20211;-29
2023/09/12 00:06:12;;;;;;;7.03;5.18;;;;;;;;;;4989910;28;20219;-29
2023/09/12 00:08:41;;;;;;;6.78;5.13;;;;;;;;;;4976897;28;20311;-32
2023/09/12 00:11:11;;;;;;;8.55;5.40;;;;;;;;;;4971846;28;20204;-30
2023/09/12 00:13:38;;;;;;;8.85;5.40;;;;;;;;;;4975387;28;20204;-27
2023/09/12 00:16:06;;;;;;;6.60;5.00;;;;;;;;;;4986511;28;20660;-32
2023/09/12 00:18:34;;;;;;;5.80;5.20;;;;;;;;;;4977095;28;20207;-30
2023/09/12 00:21:01;;;;;;;10.60;5.32;;;;;;;;;;4981051;28;20717;-29
2023/09/12 00:23:29;;;;;;;9.07;5.93;;;;;;;;;;4978652;28;20204;-31
2023/09/12 00:25:58;;;;;;;8.73;5.22;;;;;;;;;;4973290;28;20224;-31
2023/09/12 00:28:25;;;;;;;7.10;5.25;;;;;;;;;;4977438;28;20294;-28
2023/09/12 00:30:53;;;;;;;9.88;5.20;;;;;;;;;;4982803;28;20348;-29
2023/09/12 00:33:20;;;;;;;7.13;4.80;;;;;;;;;;4976177;28;20205;-29
2023/09/12 00:35:47;;;;;;;5.85;5.25;;;;;;;;;;4984616;28;20299;-30
2023/09/12 00:38:14;;;;;;;4.97;4.50;;;;;;;;;;4983513;28;20243;-29
2023/09/12 00:40:41;;;;;;;6.93;5.50;;;;;;;;;;4982174;28;20448;-28
2023/09/12 00:43:11;;;;;;;5.85;5.15;;;;;;;;;;4980008;28;20231;-30
2023/09/12 00:45:38;;;;;;;6.40;4.90;;;;;;;;;;4978813;28;20208;-27
2023/09/12 00:48:06;;;;;;;7.38;5.07;;;;;;;;;;4976939;28;20296;-30
2023/09/12 00:50:33;;;;;;;8.98;5.45;;;;;;;;;;4972378;28;20228;-29
2023/09/12 00:53:01;;;;;;;7.95;5.28;;;;;;;;;;4977007;28;20204;-27
2023/09/12 00:55:28;;;;;;;5.40;4.70;;;;;;;;;;4978645;28;20210;-27
2023/09/12 00:57:55;;;;;;;10.20;5.90;;;;;;;;;;4988491;28;20204;-31
2023/09/12 01:00:24;;;;;;;5.40;4.40;;;;;;;;;;4977564;28;20765;-27
2023/09/12 01:02:53;;;;;;;9.25;6.47;;;;;;;;;;4987935;28;20295;-28
2023/09/12 01:05:20;;;;;;;7.85;5.13;;;;;;;;;;4988663;28;20200;-27
2023/09/12 01:07:48;;;;;;;9.23;6.07;;;;;;;;;;4972343;28;20259;-27
2023/09/12 01:10:15;;;;;;;5.05;4.60;;;;;;;;;;4981462;28;20774;-31
2023/09/12 01:12:42;;;;;;;7.15;5.07;;;;;;;;;;4979383;28;20200;-31
2023/09/12 01:15:13;;;;;;;6.63;5.53;;;;;;;;;;4986214;28;20200;-28
2023/09/12 01:17:42;;;;;;;5.47;4.82;;;;;;;;;;4978332;28;20196;-27
2023/09/12 01:20:12;;;;;;;8.73;5.75;;;;;;;;;;4989248;28;20564;-30
2023/09/12 01:22:48;;;;;;;8.07;5.80;;;;;;;;;;4979049;28;20263;-28
2023/09/12 01:25:34;;;;;;;8.57;5.45;;;;;;;;;;4980161;28;20210;-27
2023/09/12 01:28:04;;;;;;;6.13;5.40;;;;;;;;;;4977083;28;20258;-29
2023/09/12 01:30:33;;;;;;;5.80;5.20;;;;;;;;;;4989058;28;20235;-27
2023/09/12 01:33:01;;;;;;;6.28;5.43;;;;;;;;;;4985223;28;20200;-29
2023/09/12 01:35:28;;;;;;;7.88;5.68;;;;;;;;;;4982628;28;20214;-29
2023/09/12 01:37:55;;;;;;;6.43;5.83;;;;;;;;;;4977505;28;20214;-27
2023/09/12 01:40:26;;;;;;;8.53;5.43;;;;;;;;;;4973916;28;20230;-28
2023/09/12 01:42:54;;;;;;;5.72;4.90;;;;;;;;;;4989411;28;20257;-31
2023/09/12 01:45:22;;;;;;;6.45;4.90;;;;;;;;;;4982970;28;20673;-29
2023/09/12 01:47:51;;;;;;;6.82;4.95;;;;;;;;;;4978566;28;20665;-28
2023/09/12 01:56:36;;;;;;;9.07;5.47;;;;;;;;;;4993611;28;20205;-34
2023/09/12 01:59:16;;;;;;;8.30;5.70;;;;;;;;;;5002590;23;20239;-31
2023/09/12 02:02:20;;;;;;;6.57;5.55;;;;;;;;;;5006441;28;20204;-33
2023/09/12 02:05:15;;;;;;;9.53;5.70;;;;;;;;;;5009597;28;20211;-35
2023/09/12 02:20:33;;;;;;;12.15;5.80;;;;;;;;;;5038402;23;20244;-33
2023/09/12 02:32:28;;;;;;;7.83;5.57;;;;;;;;;;5222350;22;20394;-35
2023/09/12 02:35:09;;;;;;;6.63;5.07;;;;;;;;;;4986310;28;20219;-34
2023/09/12 02:40:42;;;;;;;4.43;4.03;;;;;;;;;;5068007;22;20258;-33
2023/09/12 02:43:27;;;;;;;8.03;5.27;;;;;;;;;;4991263;28;20204;-37
2023/09/12 02:46:25;;;;;;;7.10;5.00;;;;;;;;;;4989023;28;20266;-32
2023/09/12 02:49:04;;;;;;;6.93;5.27;;;;;;;;;;4993399;28;20294;-34
2023/09/12 02:51:41;;;;;;;5.23;4.53;;;;;;;;;;4997999;28;20211;-34
2023/09/12 02:54:18;;;;;;;8.10;5.37;;;;;;;;;;4992058;28;20274;-36
2023/09/12 02:57:08;;;;;;;6.10;4.83;;;;;;;;;;4994298;28;20203;-34
2023/09/12 03:00:00;;;;;;;6.70;4.90;;;;;;;;;;4996349;28;20597;-35
2023/09/12 03:02:36;;;;;;;4.80;4.40;;;;;;;;;;4994243;28;20207;-34
2023/09/12 03:05:11;;;;;;;8.57;5.50;;;;;;;;;;4993268;28;20203;-36
2023/09/12 03:08:16;;;;;;;7.50;5.50;;;;;;;;;;4994011;28;20270;-34
2023/09/12 03:11:02;;;;;;;6.33;4.37;;;;;;;;;;4992444;28;20234;-36
2023/09/12 03:13:46;;;;;;;6.53;4.40;;;;;;;;;;4993532;28;20243;-33
2023/09/12 03:16:39;;;;;;;7.50;4.93;;;;;;;;;;4996129;28;20210;-35
2023/09/12 03:19:17;;;;;;;6.53;5.03;;;;;;;;;;4981580;28;20276;-33
2023/09/12 03:22:01;;;;;;;5.63;4.80;;;;;;;;;;4993097;28;20266;-36
2023/09/12 03:24:51;;;;;;;7.50;5.10;;;;;;;;;;4993695;28;20218;-35
2023/09/12 03:30:35;;;;;;;5.57;4.83;;;;;;;;;;4993950;28;20309;-34
2023/09/12 03:33:31;;;;;;;7.27;4.90;;;;;;;;;;4988085;28;20235;-36
2023/09/12 03:36:14;;;;;;;6.47;4.73;;;;;;;;;;4990522;28;20234;-34
2023/09/12 03:39:09;;;;;;;7.23;4.57;;;;;;;;;;4997460;28;20211;-34
2023/09/12 03:42:17;;;;;;;5.33;4.37;;;;;;;;;;4987669;28;20215;-34
2023/09/12 03:44:56;;;;;;;6.13;5.53;;;;;;;;;;4995939;28;20281;-35
2023/09/12 03:48:03;;;;;;;6.53;5.00;;;;;;;;;;4995437;28;20226;-35
2023/09/12 03:51:03;;;;;;;5.83;4.20;;;;;;;;;;4994892;28;20232;-35
2023/09/12 03:53:49;;;;;;;6.70;4.90;;;;;;;;;;4991522;28;20330;-33
2023/09/12 03:56:30;;;;;;;8.57;5.17;;;;;;;;;;4994243;28;20222;-34
2023/09/12 03:59:10;;;;;;;7.23;4.90;;;;;;;;;;5221195;23;20489;-33
2023/09/12 04:02:03;;;;;;;8.23;4.97;;;;;;;;;;4948527;28;20211;-34
2023/09/12 04:04:59;;;;;;;6.63;4.80;;;;;;;;;;4954733;28;20208;-34
2023/09/12 04:08:02;;;;;;;6.27;4.53;;;;;;;;;;4964669;28;20240;-35
2023/09/12 04:10:42;;;;;;;7.30;4.60;;;;;;;;;;4950522;28;20319;-36
2023/09/12 04:13:19;;;;;;;6.73;4.80;;;;;;;;;;4954503;28;20219;-32
2023/09/12 04:16:04;;;;;;;7.00;4.90;;;;;;;;;;4954626;28;20284;-36
2023/09/12 04:18:50;;;;;;;6.23;5.10;;;;;;;;;;4948821;28;20727;-34
2023/09/12 04:21:24;;;;;;;6.37;4.90;;;;;;;;;;4945681;28;20307;-35
2023/09/12 04:27:12;;;;;;;8.00;5.33;;;;;;;;;;4940231;28;20319;-33
2023/09/12 04:29:59;;;;;;;8.93;5.43;;;;;;;;;;5141371;23;20358;-36
2023/09/12 04:32:37;;;;;;;7.20;5.03;;;;;;;;;;4986205;28;20207;-34
2023/09/12 04:35:25;;;;;;;6.40;4.50;;;;;;;;;;4990960;28;20203;-36
2023/09/12 04:38:11;;;;;;;6.30;5.00;;;;;;;;;;4985376;28;20207;-38
2023/09/12 04:41:04;;;;;;;6.27;5.10;;;;;;;;;;4989197;28;20229;-34
2023/09/12 04:43:53;;;;;;;6.70;5.47;;;;;;;;;;4992690;28;20237;-35
2023/09/12 04:46:34;;;;;;;7.10;5.10;;;;;;;;;;4991611;28;20223;-35
2023/09/12 04:49:10;;;;;;;7.43;5.27;;;;;;;;;;4990414;28;20233;-34
2023/09/12 04:51:53;;;;;;;6.53;4.73;;;;;;;;;;4992790;28;20617;-32
2023/09/12 04:54:28;;;;;;;6.77;5.30;;;;;;;;;;4982726;28;20211;-35
2023/09/12 05:05:44;;;;;;;8.00;4.83;;;;;;;;;;4987535;28;20230;-34
2023/09/12 05:11:23;;;;;;;8.03;5.30;;;;;;;;;;4969843;28;20239;-34
2023/09/12 05:14:06;;;;;;;6.10;4.67;;;;;;;;;;4963167;28;20200;-35
2023/09/12 05:16:55;;;;;;;4.60;3.70;;;;;;;;;;4967032;28;20219;-34
2023/09/12 05:22:52;;;;;;;9.10;4.90;;;;;;;;;;4965944;28;20203;-30
2023/09/12 05:25:39;;;;;;;5.70;4.60;;;;;;;;;;4961794;28;20229;-35
2023/09/12 05:28:21;;;;;;;7.90;4.33;;;;;;;;;;4963775;28;20226;-34
2023/09/12 05:31:00;;;;;;;5.23;4.30;;;;;;;;;;4968856;28;20678;-36
2023/09/12 05:33:33;;;;;;;5.40;4.90;;;;;;;;;;4964405;28;20212;-34
2023/09/12 05:36:07;;;;;;;8.10;5.13;;;;;;;;;;4967617;28;20228;-33
2023/09/12 05:38:47;;;;;;;5.70;5.10;;;;;;;;;;4967467;28;20212;-33
2023/09/12 05:41:27;;;;;;;8.87;5.47;;;;;;;;;;4971707;28;20211;-33
2023/09/12 05:44:09;;;;;;;7.43;5.87;;;;;;;;;;4967064;28;20204;-34
2023/09/12 05:46:53;;;;;;;8.43;5.30;;;;;;;;;;4969962;28;20204;-34
2023/09/12 05:49:31;;;;;;;7.57;5.63;;;;;;;;;;4968566;28;20231;-33
2023/09/12 05:52:18;;;;;;;6.90;5.60;;;;;;;;;;4964525;28;20207;-33
2023/09/12 05:57:52;;;;;;;7.17;4.87;;;;;;;;;;4966763;28;20232;-33
2023/09/12 06:00:34;;;;;;;10.43;5.80;;;;;;;;;;4970642;28;20262;-33
2023/09/12 06:06:18;;;;;;;8.00;5.50;;;;;;;;;;4970023;28;20209;-30
2023/09/12 06:09:10;;;;;;;9.43;5.50;;;;;;;;;;4962899;28;20237;-33
2023/09/12 06:12:05;;;;;;;8.63;5.43;;;;;;;;;;4965347;28;20284;-35
2023/09/12 06:14:40;;;;;;;6.17;5.00;;;;;;;;;;4961761;28;20212;-33
2023/09/12 06:17:21;;;;;;;6.77;5.07;;;;;;;;;;4960014;28;20608;-36
2023/09/12 06:20:05;;;;;;;8.30;5.70;;;;;;;;;;4968982;28;20244;-33
2023/09/12 06:22:50;;;;;;;7.70;5.60;;;;;;;;;;4965871;28;20208;-33
2023/09/12 06:25:33;;;;;;;10.87;6.00;;;;;;;;;;4962105;28;20250;-32
2023/09/12 06:28:20;;;;;;;6.70;4.93;;;;;;;;;;4970973;28;20246;-34
2023/09/12 06:31:04;;;;;;;7.20;5.63;;;;;;;;;;4963059;28;20251;-32
2023/09/12 06:33:44;;;;;;;7.20;5.57;;;;;;;;;;4970791;28;20211;-35
2023/09/12 06:36:30;;;;;;;8.63;5.63;;;;;;;;;;4972807;28;20250;-36
2023/09/12 06:39:24;;;;;;;9.47;5.53;;;;;;;;;;4972175;28;20232;-36
2023/09/12 06:42:24;;;;;;;8.83;5.93;;;;;;;;;;4970411;28;20206;-34
2023/09/12 06:45:09;;;;;;;9.50;6.13;;;;;;;;;;4972016;28;20208;-31
2023/09/12 06:48:06;;;;;;;8.80;5.20;;;;;;;;;;4972185;28;20231;-34
2023/09/12 06:50:44;;;;;;;11.97;6.07;;;;;;;;;;4964693;28;20254;-33
2023/09/12 06:53:19;;;;;;;6.97;5.20;;;;;;;;;;4966725;28;20210;-35
2023/09/12 06:56:04;;;;;;;9.20;5.70;;;;;;;;;;4968906;28;20200;-35
2023/09/12 06:58:36;;;;;;;8.23;5.87;;;;;;;;;;4964188;28;20222;-36
2023/09/12 07:01:12;;;;;;;10.83;6.43;;;;;;;;;;4970028;28;20199;-34
2023/09/12 07:03:44;;;;;;;8.67;7.10;;;;;;;;;;4970643;28;20204;-34
2023/09/12 07:06:23;;;;;;;7.37;5.50;;;;;;;;;;4972706;28;20234;-32
2023/09/12 07:08:58;;;;;;;8.80;6.03;;;;;;;;;;4973119;28;20306;-34
2023/09/12 07:11:31;;;;;;;11.47;6.83;;;;;;;;;;4971840;28;20204;-34
2023/09/12 07:14:04;;;;;;;8.67;5.50;;;;;;;;;;4976240;28;20212;-33
2023/09/12 07:16:41;;;;;;;10.53;6.53;;;;;;;;;;4967822;28;20204;-32
2023/09/12 07:19:16;;;;;;;9.07;5.63;;;;;;;;;;4971596;28;20215;-33
2023/09/12 07:21:51;;;;;;;7.07;5.20;;;;;;;;;;4958644;28;20215;-33
2023/09/12 07:24:39;;;;;;;7.27;5.50;;;;;;;;;;4967835;28;20291;-34
2023/09/12 07:27:57;;;;;;;9.07;5.53;;;;;;;;;;4974026;28;20210;-34
2023/09/12 07:30:30;;;;;;;6.30;4.67;;;;;;;;;;4935568;28;20231;-34
2023/09/12 07:33:20;;;;;;;;;;;;;;;;;;;;;
2023/09/12 07:35:52;;;;;;;10.63;6.07;;;;;;;;;;4967068;28;20215;-34
2023/09/12 07:38:26;;;;;;;9.63;5.93;;;;;;;;;;4967521;28;20204;-32
2023/09/12 07:40:57;;;;;;;9.23;6.30;;;;;;;;;;4973850;28;20223;-37
2023/09/12 07:43:35;;;;;;;9.23;6.27;;;;;;;;;;4966962;28;20205;-35
2023/09/12 07:46:04;;;;;;;11.07;5.33;;;;;;;;;;4973997;28;20287;-34
2023/09/12 07:48:35;;;;;;;9.67;6.43;;;;;;;;;;4968714;28;20221;-33
2023/09/12 07:51:14;;;;;;;11.03;5.67;;;;;;;;;;4976643;28;20200;-33
2023/09/12 07:53:47;;;;;;;9.30;6.60;;;;;;;;;;4967519;28;20214;-33
2023/09/12 07:56:16;;;;;;;11.52;6.53;;;;;;;;;;4974094;28;20686;-32
2023/09/12 07:58:47;;;;;;;9.83;6.17;;;;;;;;;;4969035;28;20208;-34
2023/09/12 08:01:19;;;;;;;10.10;6.53;;;;;;;;;;4965497;28;20279;-33
2023/09/12 08:03:54;;;;;;;12.90;6.63;;;;;;;;;;4967006;28;20220;-37
2023/09/12 08:06:27;;;;;;;15.47;6.80;;;;;;;;;;4973703;28;20639;-34
2023/09/12 08:09:11;;;;;;;14.32;6.97;;;;;;;;;;4972358;28;20263;-35
2023/09/12 08:11:48;;;;;;;10.77;6.50;;;;;;;;;;4969186;28;20219;-32
2023/09/12 08:14:21;;;;;;;8.70;6.27;;;;;;;;;;4961128;28;20196;-33
2023/09/12 08:16:53;;;;;;;8.47;6.60;;;;;;;;;;4971555;28;20216;-34
2023/09/12 08:19:26;;;;;;;8.00;6.17;;;;;;;;;;4970372;28;20232;-33
2023/09/12 08:21:56;;;;;;;11.47;6.53;;;;;;;;;;4970776;28;20209;-34
2023/09/12 08:24:33;;;;;;;11.33;6.87;;;;;;;;;;4969685;28;20205;-33
2023/09/12 08:27:14;;;;;;;12.30;7.10;;;;;;;;;;4966410;28;20213;-31
2023/09/12 08:32:21;;;;;;;9.07;6.20;;;;;;;;;;750559;22;20492;-29
2023/09/12 08:43:23;;;;;;;9.20;6.45;;;;;;;;;;4974069;28;20208;-34
2023/09/12 08:46:06;;;;;;;8.57;6.43;;;;;;;;;;4971352;28;20208;-37
2023/09/12 08:48:47;;;;;;;10.80;6.68;;;;;;;;;;4972891;28;20232;-34
2023/09/12 08:51:21;;;;;;;9.98;6.30;;;;;;;;;;4953912;28;20216;-35
2023/09/12 08:54:04;;;;;;;11.77;6.57;;;;;;;;;;4954548;28;20292;-32
2023/09/12 08:56:39;;;;;;;10.77;6.05;;;;;;;;;;4950460;28;20207;-33
2023/09/12 08:59:31;;;;;;;9.05;6.60;;;;;;;;;;4946586;28;20248;-33
2023/09/12 09:17:16;;;;;;;8.15;6.30;;;;;;;;;;4981543;28;20208;-34
2023/09/12 09:30:18;;;;;;;8.98;6.28;;;;;;;;;;4980986;28;20247;-34
2023/09/12 09:33:03;;;;;;;12.52;6.20;;;;;;;;;;4971896;28;20210;-34
2023/09/12 09:47:50;;;;;;;8.90;6.55;;;;;;;;;;4982224;28;20558;-43
2023/09/12 09:55:53;;;;;;;11.68;5.95;;;;;;;;;;4991164;23;20244;-89
2023/09/12 09:58:25;;;;;;;8.68;6.43;;;;;;;;;;4975552;28;20217;-89
2023/09/12 10:00:53;;;;;;;6.72;5.97;;;;;;;;;;4983812;28;20207;-89
2023/09/12 10:03:22;;;;;;;7.80;6.22;;;;;;;;;;4985034;28;20215;-90
2023/09/12 10:05:52;;;;;;;9.43;6.47;;;;;;;;;;4987070;28;20724;-90
2023/09/12 10:08:21;;;;;;;7.72;6.72;;;;;;;;;;4992444;28;20610;-89
2023/09/12 10:10:48;;;;;;;9.75;7.05;;;;;;;;;;4992352;28;20216;-89
2023/09/12 10:13:18;;;;;;;12.07;6.95;;;;;;;;;;4992095;28;20292;-89
2023/09/12 10:15:46;;;;;;;8.00;6.80;;;;;;;;;;4993576;28;20234;-89
2023/09/12 10:18:16;;;;;;;8.55;6.82;;;;;;;;;;4988184;28;20210;-89
2023/09/12 10:20:54;;;;;;;7.38;6.57;;;;;;;;;;4991363;28;20656;-89
2023/09/12 10:23:22;;;;;;;7.95;6.35;;;;;;;;;;4989614;28;20281;-91
2023/09/12 10:25:50;;;;;;;7.65;6.43;;;;;;;;;;4991880;28;20229;-89
2023/09/12 10:28:19;;;;;;;9.25;7.13;;;;;;;;;;4991195;28;20222;-89
2023/09/12 10:30:46;;;;;;;9.65;6.82;;;;;;;;;;4991758;28;20211;-90
2023/09/12 10:33:14;;;;;;;7.03;6.18;;;;;;;;;;4991115;28;20287;-90
2023/09/12 10:35:42;;;;;;;8.55;6.57;;;;;;;;;;4995569;28;20233;-90
2023/09/12 10:38:10;;;;;;;6.80;6.18;;;;;;;;;;4993038;28;20217;-90
2023/09/12 10:40:37;;;;;;;8.65;6.95;;;;;;;;;;4987902;28;20210;-90
2023/09/12 10:43:05;;;;;;;7.68;6.30;;;;;;;;;;4995454;28;20211;-91
2023/09/12 10:45:34;;;;;;;7.65;6.28;;;;;;;;;;4995457;28;20226;-90
2023/09/12 10:48:02;;;;;;;7.03;6.30;;;;;;;;;;4993965;28;20330;-90
2023/09/12 10:50:29;;;;;;;9.32;6.13;;;;;;;;;;4995399;28;20226;-90
2023/09/12 10:52:58;;;;;;;7.95;5.90;;;;;;;;;;4994364;28;20219;-90
2023/09/12 10:55:25;;;;;;;8.95;6.22;;;;;;;;;;4988080;28;20237;-91
2023/09/12 10:58:02;;;;;;;7.70;6.20;;;;;;;;;;4994863;28;20656;-90
2023/09/12 11:00:32;;;;;;;7.63;6.55;;;;;;;;;;4989943;28;20684;-90
2023/09/12 11:03:01;;;;;;;7.85;5.88;;;;;;;;;;4993534;28;20207;-90
2023/09/12 11:05:38;;;;;;;7.28;6.07;;;;;;;;;;4994027;28;20239;-90
2023/09/12 11:08:05;;;;;;;9.02;6.07;;;;;;;;;;4995256;28;20210;-90
2023/09/12 11:10:33;;;;;;;7.63;6.75;;;;;;;;;;4984227;28;20687;-90
2023/09/12 11:13:00;;;;;;;10.48;6.18;;;;;;;;;;4989211;28;20218;-90
2023/09/12 11:15:28;;;;;;;8.70;5.50;;;;;;;;;;4981215;28;20228;-91
2023/09/12 11:18:04;;;;;;;6.55;5.85;;;;;;;;;;4993662;28;20213;-91
2023/09/12 11:20:51;;;;;;;9.27;5.95;;;;;;;;;;4989473;28;20290;-90
2023/09/12 11:23:18;;;;;;;6.85;5.85;;;;;;;;;;4987621;28;20210;-90
2023/09/12 11:25:46;;;;;;;6.32;5.60;;;;;;;;;;4994577;28;20234;-90
2023/09/12 11:28:13;;;;;;;8.93;6.05;;;;;;;;;;4995158;28;20760;-90
2023/09/12 11:30:56;;;;;;;6.60;5.65;;;;;;;;;;4987895;28;20231;-91
2023/09/12 11:33:25;;;;;;;8.95;5.97;;;;;;;;;;4987451;28;20202;-93
2023/09/12 11:35:54;;;;;;;5.32;4.75;;;;;;;;;;4994571;28;20321;-91
2023/09/12 11:38:28;;;;;;;5.35;4.78;;;;;;;;;;4979713;28;20277;-91
2023/09/12 11:40:55;;;;;;;7.70;5.40;;;;;;;;;;4994412;28;20205;-91
2023/09/12 11:43:25;;;;;;;7.57;5.15;;;;;;;;;;4995210;28;20214;-91
2023/09/12 11:45:52;;;;;;;8.60;5.10;;;;;;;;;;4995233;28;20452;-91
2023/09/12 11:48:20;;;;;;;7.00;4.40;;;;;;;;;;4994746;28;20700;-92
2023/09/12 11:50:53;;;;;;;9.45;4.85;;;;;;;;;;4987381;28;20583;-91
2023/09/12 11:53:22;;;;;;;5.93;4.70;;;;;;;;;;4976449;28;20210;-92
2023/09/12 11:55:51;;;;;;;7.93;4.97;;;;;;;;;;4975785;28;20242;-92
2023/09/12 11:58:19;;;;;;;8.23;4.60;;;;;;;;;;4976077;28;20297;-92
2023/09/12 12:00:47;;;;;;;7.15;4.93;;;;;;;;;;4975905;28;20547;-91
2023/09/12 12:03:14;;;;;;;5.95;4.82;;;;;;;;;;4975642;28;20266;-92
2023/09/12 12:05:42;;;;;;;6.00;4.93;;;;;;;;;;4975581;28;20231;-91
2023/09/12 12:08:11;;;;;;;4.80;4.35;;;;;;;;;;4993740;28;20217;-91
2023/09/12 12:10:39;;;;;;;7.38;4.95;;;;;;;;;;4994893;28;20339;-92
2023/09/12 12:13:08;;;;;;;5.88;4.68;;;;;;;;;;4995280;28;20231;-91
2023/09/12 12:15:35;;;;;;;6.53;4.70;;;;;;;;;;4995057;28;20227;-92
2023/09/12 12:18:02;;;;;;;6.18;4.55;;;;;;;;;;4995165;28;20741;-92
2023/09/12 12:20:30;;;;;;;6.85;4.10;;;;;;;;;;4990358;28;20213;-92
2023/09/12 12:22:57;;;;;;;5.78;4.35;;;;;;;;;;4975303;28;20271;-92
2023/09/12 12:25:27;;;;;;;10.95;4.80;;;;;;;;;;4990132;28;20319;-95
2023/09/12 12:27:54;;;;;;;4.68;4.22;;;;;;;;;;4981188;28;20259;-95
2023/09/12 12:30:22;;;;;;;7.70;4.40;;;;;;;;;;4996102;28;20246;-94
2023/09/12 12:32:50;;;;;;;4.93;4.30;;;;;;;;;;4995432;28;20215;-95
2023/09/12 12:35:20;;;;;;;5.25;4.43;;;;;;;;;;4995645;28;20236;-94
2023/09/12 12:37:52;;;;;;;7.28;4.38;;;;;;;;;;4989804;28;20204;-94
2023/09/12 12:40:19;;;;;;;5.38;4.15;;;;;;;;;;4986219;28;20204;-94
2023/09/12 12:42:49;;;;;;;5.35;4.82;;;;;;;;;;4997793;28;20235;-94
2023/09/12 12:45:17;;;;;;;5.38;4.70;;;;;;;;;;4989808;28;20232;-94
2023/09/12 12:51:09;;;;;;;6.35;4.22;;;;;;;;;;4964833;28;20264;-94
2023/09/12 12:54:03;;;;;;;6.15;4.10;;;;;;;;;;4977151;28;20216;-94
2023/09/12 12:56:30;;;;;;;6.03;4.72;;;;;;;;;;4975992;28;20232;-94
2023/09/12 12:59:02;;;;;;;4.95;4.07;;;;;;;;;;4976422;28;20224;-94
2023/09/12 13:01:30;;;;;;;9.63;4.93;;;;;;;;;;4980156;28;20263;-93
2023/09/12 13:03:57;;;;;;;4.72;4.32;;;;;;;;;;4991356;28;20200;-93
2023/09/12 13:06:27;;;;;;;4.28;3.88;;;;;;;;;;4993859;28;20708;-93
2023/09/12 13:08:57;;;;;;;5.93;4.68;;;;;;;;;;4986683;28;20211;-94
2023/09/12 13:11:24;;;;;;;4.70;4.20;;;;;;;;;;4983026;28;20315;-93
2023/09/12 13:13:51;;;;;;;4.88;4.38;;;;;;;;;;4975309;28;20239;-94
2023/09/12 13:16:20;;;;;;;5.13;4.60;;;;;;;;;;4991308;28;20227;-94
2023/09/12 13:18:56;;;;;;;5.18;4.60;;;;;;;;;;4983248;28;20227;-95
2023/09/12 13:21:32;;;;;;;4.47;3.92;;;;;;;;;;4987315;28;20215;-94
2023/09/12 13:24:03;;;;;;;11.93;4.55;;;;;;;;;;4993517;28;20274;-94
2023/09/12 13:26:39;;;;;;;4.63;4.05;;;;;;;;;;4985103;28;20231;-94
2023/09/12 13:29:11;;;;;;;8.20;4.30;;;;;;;;;;4977688;28;20238;-95
2023/09/12 13:31:49;;;;;;;7.07;4.28;;;;;;;;;;4982086;28;20219;-95
2023/09/12 13:34:18;;;;;;;7.57;4.82;;;;;;;;;;4995789;28;20677;-95
2023/09/12 13:37:12;;;;;;;5.10;4.47;;;;;;;;;;4997509;28;20231;-95
2023/09/12 13:39:39;;;;;;;5.43;4.63;;;;;;;;;;4983567;28;20234;-94
2023/09/12 13:42:09;;;;;;;5.50;4.80;;;;;;;;;;4980033;28;20266;-95
2023/09/12 13:44:40;;;;;;;8.93;4.97;;;;;;;;;;4998039;28;20584;-95
2023/09/12 13:47:09;;;;;;;5.47;4.97;;;;;;;;;;4996073;28;20294;-94
2023/09/12 13:49:36;;;;;;;5.80;5.20;;;;;;;;;;4991197;28;20227;-95
2023/09/12 13:52:08;;;;;;;8.05;5.00;;;;;;;;;;4985864;28;20238;-94
2023/09/12 13:54:35;;;;;;;5.65;5.05;;;;;;;;;;4989176;28;20250;-95
2023/09/12 13:57:08;;;;;;;6.18;4.63;;;;;;;;;;4998636;28;20284;-95
2023/09/12 13:59:35;;;;;;;5.18;4.78;;;;;;;;;;4995267;28;20200;-94
2023/09/12 14:02:02;;;;;;;5.55;4.60;;;;;;;;;;4996932;28;20310;-94
2023/09/12 14:04:31;;;;;;;6.95;5.15;;;;;;;;;;4996072;28;20580;-94
2023/09/12 14:06:58;;;;;;;5.43;4.45;;;;;;;;;;4997697;28;20204;-94
2023/09/12 14:09:26;;;;;;;6.03;5.15;;;;;;;;;;4992491;28;20237;-94
2023/09/12 14:11:54;;;;;;;5.55;4.97;;;;;;;;;;4984480;28;20200;-95
2023/09/12 14:14:21;;;;;;;7.10;4.57;;;;;;;;;;4987366;28;20235;-94
2023/09/12 14:16:49;;;;;;;5.20;4.78;;;;;;;;;;4993881;28;20216;-94
2023/09/12 14:19:23;;;;;;;5.03;4.47;;;;;;;;;;4986887;28;20206;-94
2023/09/12 14:21:52;;;;;;;5.30;4.80;;;;;;;;;;4995957;28;20205;-94
2023/09/12 14:24:20;;;;;;;8.73;4.95;;;;;;;;;;4995439;28;20271;-94
2023/09/12 14:26:54;;;;;;;6.80;5.32;;;;;;;;;;4990225;28;20259;-94
2023/09/12 14:29:22;;;;;;;5.38;4.78;;;;;;;;;;4987205;28;20234;-94
2023/09/12 14:31:57;;;;;;;7.88;5.00;;;;;;;;;;4979676;28;20239;-94
2023/09/12 14:34:39;;;;;;;5.35;4.88;;;;;;;;;;4976452;28;20294;-94
2023/09/12 14:37:26;;;;;;;6.45;4.85;;;;;;;;;;4979262;28;20205;-95
2023/09/12 14:39:56;;;;;;;5.60;4.85;;;;;;;;;;4977617;28;20204;-94
2023/09/12 14:42:32;;;;;;;4.97;4.57;;;;;;;;;;4977358;28;20204;-95
2023/09/12 14:45:07;;;;;;;5.53;4.78;;;;;;;;;;4982456;28;20224;-95
2023/09/12 14:47:40;;;;;;;7.50;4.47;;;;;;;;;;4993515;28;20234;-94
2023/09/12 14:50:08;;;;;;;5.25;4.72;;;;;;;;;;4984284;28;20267;-94
2023/09/12 14:52:38;;;;;;;6.00;4.82;;;;;;;;;;4978467;28;20196;-95
2023/09/12 14:55:20;;;;;;;5.63;4.90;;;;;;;;;;4996936;28;20326;-95
2023/09/12 14:57:49;;;;;;;5.50;4.97;;;;;;;;;;4988097;28;20277;-94
2023/09/12 15:00:21;;;;;;;5.40;4.90;;;;;;;;;;4995658;28;20250;-96
2023/09/12 15:02:53;;;;;;;4.97;4.53;;;;;;;;;;4990075;28;20230;-95
2023/09/12 15:05:30;;;;;;;5.50;4.90;;;;;;;;;;4999450;28;20246;-95
2023/09/12 15:08:13;;;;;;;5.95;5.03;;;;;;;;;;4994832;28;20258;-94
2023/09/12 15:10:46;;;;;;;6.82;4.95;;;;;;;;;;4987326;28;20314;-94
2023/09/12 15:13:34;;;;;;;5.45;4.70;;;;;;;;;;4994289;28;20211;-94
2023/09/12 15:16:31;;;;;;;5.75;5.22;;;;;;;;;;4963557;28;20238;-95
2023/09/12 15:19:29;;;;;;;6.53;5.65;;;;;;;;;;4990208;28;20265;-94
2023/09/12 15:22:21;;;;;;;5.50;4.97;;;;;;;;;;4975572;28;20209;-94
2023/09/12 15:25:11;;;;;;;7.25;5.25;;;;;;;;;;4988468;28;20231;-95
2023/09/12 15:27:43;;;;;;;7.22;5.63;;;;;;;;;;4983332;28;20195;-95
2023/09/12 15:30:16;;;;;;;5.95;5.43;;;;;;;;;;4991818;28;20211;-94
2023/09/12 15:32:56;;;;;;;6.50;5.15;;;;;;;;;;4991039;28;20222;-94
2023/09/12 15:35:33;;;;;;;7.88;5.60;;;;;;;;;;4987241;28;20234;-94
2023/09/12 15:38:12;;;;;;;7.80;5.18;;;;;;;;;;4994303;28;20335;-95
2023/09/12 15:40:49;;;;;;;9.65;4.82;;;;;;;;;;4988530;28;20323;-95
2023/09/12 15:43:43;;;;;;;7.50;5.40;;;;;;;;;;4990418;28;20199;-95
2023/09/12 15:46:32;;;;;;;7.38;5.13;;;;;;;;;;4985244;28;20227;-94
2023/09/12 15:52:36;;;;;;;8.15;5.40;;;;;;;;;;4987959;28;20229;-95
2023/09/12 15:58:12;;;;;;;7.45;5.80;;;;;;;;;;4987204;28;20270;-95
2023/09/12 16:01:22;;;;;;;7.97;5.70;;;;;;;;;;4988357;28;20211;-94
2023/09/12 16:04:07;;;;;;;5.85;5.20;;;;;;;;;;4986828;28;20203;-94
2023/09/12 16:06:54;;;;;;;5.97;5.32;;;;;;;;;;4984443;28;20563;-94
2023/09/12 16:16:13;;;;;;;6.18;5.32;;;;;;;;;;4924175;29;20232;-94
2023/09/12 16:21:42;;;;;;;6.07;5.50;;;;;;;;;;4930184;29;20211;-94
2023/09/12 16:24:11;;;;;;;6.90;5.65;;;;;;;;;;4930059;29;20790;-94
2023/09/12 16:26:38;;;;;;;7.13;5.20;;;;;;;;;;4924847;29;20228;-92
2023/09/12 16:29:06;;;;;;;8.23;6.15;;;;;;;;;;4938757;28;20211;-92
2023/09/12 16:31:34;;;;;;;7.43;5.47;;;;;;;;;;4990884;28;20233;-93
2023/09/12 16:34:03;;;;;;;7.50;6.10;;;;;;;;;;4991554;28;20219;-93
2023/09/12 16:36:30;;;;;;;7.35;5.82;;;;;;;;;;4991605;28;20301;-92
2023/09/12 16:38:57;;;;;;;8.50;5.88;;;;;;;;;;4988625;28;20217;-92
2023/09/12 16:41:25;;;;;;;11.32;6.13;;;;;;;;;;4991284;28;20210;-94
2023/09/12 16:43:52;;;;;;;9.25;5.90;;;;;;;;;;4990647;28;20321;-92
2023/09/12 16:46:19;;;;;;;9.07;5.38;;;;;;;;;;4988468;28;20687;-91
2023/09/12 16:48:48;;;;;;;6.82;5.85;;;;;;;;;;4989786;28;20212;-94
2023/09/12 16:51:15;;;;;;;8.88;6.15;;;;;;;;;;4989436;28;20325;-91
2023/09/12 16:53:42;;;;;;;8.98;6.10;;;;;;;;;;4990336;28;20237;-92
2023/09/12 16:56:09;;;;;;;10.68;6.00;;;;;;;;;;4986923;28;20230;-94
2023/09/12 16:58:37;;;;;;;6.97;5.57;;;;;;;;;;4988113;28;20214;-92
2023/09/12 17:01:11;;;;;;;7.75;5.80;;;;;;;;;;4990429;28;20203;-91
2023/09/12 17:03:38;;;;;;;7.60;5.95;;;;;;;;;;4983061;28;20714;-92
2023/09/12 17:06:07;;;;;;;7.03;5.80;;;;;;;;;;4990517;28;20247;-93
2023/09/12 17:08:34;;;;;;;7.38;6.00;;;;;;;;;;4990530;28;20282;-91
2023/09/12 17:11:02;;;;;;;7.25;6.07;;;;;;;;;;4979208;28;20242;-92
2023/09/12 17:13:29;;;;;;;8.45;5.75;;;;;;;;;;4985578;28;20215;-93
2023/09/12 17:15:56;;;;;;;7.97;5.38;;;;;;;;;;4987742;28;20228;-92
2023/09/12 17:18:23;;;;;;;7.50;5.90;;;;;;;;;;4985337;28;20214;-93
2023/09/12 17:20:50;;;;;;;6.65;5.15;;;;;;;;;;4985979;28;20206;-92
2023/09/12 17:23:19;;;;;;;10.48;5.63;;;;;;;;;;4985238;28;20246;-92
2023/09/12 17:25:46;;;;;;;6.78;6.00;;;;;;;;;;4983026;28;20230;-92
2023/09/12 17:28:13;;;;;;;5.43;4.70;;;;;;;;;;4990003;28;20668;-93
2023/09/12 17:30:41;;;;;;;6.20;5.30;;;;;;;;;;4990466;28;20736;-93
2023/09/12 17:33:10;;;;;;;5.82;5.28;;;;;;;;;;4985266;28;20247;-92
2023/09/12 17:35:37;;;;;;;7.35;5.35;;;;;;;;;;4989821;28;20232;-92
2023/09/12 17:38:04;;;;;;;6.65;4.60;;;;;;;;;;4985804;28;20203;-94
2023/09/12 17:40:33;;;;;;;6.22;5.30;;;;;;;;;;5000265;28;20620;-93
2023/09/12 17:43:01;;;;;;;5.80;5.20;;;;;;;;;;4985150;28;20212;-92